RYR4PJ LGAV-EPKK
Flight info
| Callsign | RYR4PJ |
|---|---|
| Flight time | 2h 14m |
| Altitude | 31000 |
| Route | KRO UT162 KOROS/N0467F320 UN133 GIKAS DCT ATFIR DCT RUPUG DCT ETNOG DCT LENOV |
| Aircraft | B738/M-SDE2E3FGHIRWXY/LB1 |
Departure
| Time | 2026-05-07 15:41 |
|---|---|
| Airport | Athens Eleftherios Venizelos International Airport (LGAV) |
Arrival
| Time | 2026-05-07 17:56 |
|---|---|
| Airport | Kraków John Paul II International Airport (EPKK) |
| Time | Latitude | Longitude | Altitude | Speed | Heading |
|---|---|---|---|---|---|
| 2026-05-07 15:13 | 37.93023 | 23.94330 | 300 ft | 0 kts | 37° |
| 2026-05-07 15:32 | 37.93003 | 23.94311 | 300 ft | 4 kts | 37° |
| 2026-05-07 15:32 | 37.92982 | 23.94290 | 301 ft | 4 kts | 37° |
| 2026-05-07 15:32 | 37.92963 | 23.94272 | 301 ft | 4 kts | 44° |
| 2026-05-07 15:32 | 37.92952 | 23.94248 | 302 ft | 4 kts | 105° |
| 2026-05-07 15:33 | 37.92963 | 23.94222 | 300 ft | 1 kts | 128° |
| 2026-05-07 15:33 | 37.92966 | 23.94217 | 301 ft | 0 kts | 128° |
| 2026-05-07 15:35 | 37.92958 | 23.94229 | 300 ft | 5 kts | 128° |
| 2026-05-07 15:35 | 37.92924 | 23.94284 | 300 ft | 11 kts | 128° |
| 2026-05-07 15:35 | 37.92882 | 23.94363 | 300 ft | 11 kts | 109° |
| 2026-05-07 15:36 | 37.92915 | 23.94439 | 303 ft | 10 kts | 37° |
| 2026-05-07 15:36 | 37.92979 | 23.94500 | 300 ft | 14 kts | 37° |
| 2026-05-07 15:36 | 37.93074 | 23.94589 | 300 ft | 20 kts | 37° |
| 2026-05-07 15:36 | 37.93202 | 23.94711 | 303 ft | 25 kts | 37° |
| 2026-05-07 15:37 | 37.93335 | 23.94837 | 300 ft | 23 kts | 37° |
| 2026-05-07 15:37 | 37.93461 | 23.94957 | 301 ft | 22 kts | 37° |
| 2026-05-07 15:37 | 37.93584 | 23.95075 | 300 ft | 22 kts | 37° |
| 2026-05-07 15:37 | 37.93706 | 23.95191 | 299 ft | 23 kts | 37° |
| 2026-05-07 15:38 | 37.93848 | 23.95326 | 299 ft | 27 kts | 37° |
| 2026-05-07 15:38 | 37.93995 | 23.95465 | 301 ft | 26 kts | 37° |
| 2026-05-07 15:38 | 37.94132 | 23.95597 | 300 ft | 24 kts | 37° |
| 2026-05-07 15:38 | 37.94261 | 23.95719 | 299 ft | 23 kts | 37° |
| 2026-05-07 15:39 | 37.94363 | 23.95821 | 302 ft | 14 kts | 51° |
| 2026-05-07 15:39 | 37.94352 | 23.95905 | 300 ft | 7 kts | 111° |
| 2026-05-07 15:39 | 37.94339 | 23.95948 | 297 ft | 0 kts | 109° |
| 2026-05-07 15:39 | 37.94337 | 23.95957 | 298 ft | 3 kts | 109° |
| 2026-05-07 15:40 | 37.94326 | 23.95989 | 296 ft | 5 kts | 122° |
| 2026-05-07 15:40 | 37.94323 | 23.95994 | 295 ft | 0 kts | 126° |
| 2026-05-07 15:40 | 37.94297 | 23.96016 | 292 ft | 11 kts | 163° |
| 2026-05-07 15:40 | 37.94198 | 23.96009 | 284 ft | 17 kts | 178° |
| 2026-05-07 15:41 | 37.94063 | 23.95949 | 281 ft | 38 kts | 216° |
| 2026-05-07 15:41 | 37.93657 | 23.95565 | 280 ft | 106 kts | 217° |
| 2026-05-07 15:41 | 37.92910 | 23.94858 | 306 ft | 159 kts | 217° |
| 2026-05-07 15:41 | 37.92000 | 23.94008 | 1009 ft | 156 kts | 216° |
| 2026-05-07 15:42 | 37.91035 | 23.93327 | 1682 ft | 166 kts | 205° |
| 2026-05-07 15:42 | 37.89927 | 23.92641 | 2074 ft | 192 kts | 206° |
| 2026-05-07 15:42 | 37.88701 | 23.91851 | 2511 ft | 206 kts | 207° |
| 2026-05-07 15:42 | 37.87358 | 23.90973 | 2775 ft | 227 kts | 207° |
| 2026-05-07 15:43 | 37.85929 | 23.90018 | 3248 ft | 237 kts | 208° |
| 2026-05-07 15:43 | 37.84451 | 23.89026 | 3955 ft | 243 kts | 208° |
| 2026-05-07 15:43 | 37.82946 | 23.88018 | 4728 ft | 247 kts | 208° |
| 2026-05-07 15:43 | 37.81392 | 23.87031 | 5450 ft | 252 kts | 200° |
| 2026-05-07 15:44 | 37.79654 | 23.86794 | 6228 ft | 257 kts | 171° |
| 2026-05-07 15:44 | 37.77995 | 23.87660 | 6890 ft | 265 kts | 143° |
| 2026-05-07 15:44 | 37.76805 | 23.89447 | 7546 ft | 270 kts | 119° |
| 2026-05-07 15:44 | 37.75941 | 23.91606 | 8053 ft | 284 kts | 116° |
| 2026-05-07 15:45 | 37.75083 | 23.93920 | 8604 ft | 294 kts | 115° |
| 2026-05-07 15:45 | 37.74236 | 23.96242 | 9383 ft | 297 kts | 115° |
| 2026-05-07 15:45 | 37.73356 | 23.98666 | 10092 ft | 302 kts | 115° |
| 2026-05-07 15:45 | 37.72618 | 24.01214 | 10413 ft | 321 kts | 97° |
| 2026-05-07 15:46 | 37.74157 | 24.06580 | 10741 ft | 357 kts | 41° |
| 2026-05-07 15:46 | 37.76295 | 24.08265 | 10928 ft | 372 kts | 23° |
| 2026-05-07 15:46 | 37.78701 | 24.09721 | 11286 ft | 383 kts | 24° |
| 2026-05-07 15:47 | 37.81110 | 24.11222 | 11835 ft | 388 kts | 24° |
| 2026-05-07 15:47 | 37.83526 | 24.12765 | 12464 ft | 391 kts | 25° |
| 2026-05-07 15:47 | 37.85921 | 24.14326 | 13049 ft | 394 kts | 25° |
| 2026-05-07 15:47 | 37.88396 | 24.15963 | 13624 ft | 398 kts | 25° |
| 2026-05-07 15:48 | 37.90826 | 24.17586 | 14158 ft | 402 kts | 25° |
| 2026-05-07 15:48 | 37.93312 | 24.19256 | 14659 ft | 406 kts | 25° |
| 2026-05-07 15:48 | 37.95815 | 24.20944 | 15187 ft | 409 kts | 25° |
| 2026-05-07 15:48 | 37.98370 | 24.22528 | 15740 ft | 407 kts | 17° |
| 2026-05-07 15:49 | 38.01134 | 24.23378 | 16357 ft | 401 kts | 2° |
| 2026-05-07 15:49 | 38.03908 | 24.23401 | 16907 ft | 398 kts | 350° |
| 2026-05-07 15:49 | 38.06628 | 24.23013 | 17407 ft | 400 kts | 349° |
| 2026-05-07 15:49 | 38.09444 | 24.22610 | 17909 ft | 404 kts | 349° |
| 2026-05-07 15:50 | 38.12213 | 24.22221 | 18427 ft | 407 kts | 349° |
| 2026-05-07 15:50 | 38.15033 | 24.21834 | 18881 ft | 409 kts | 349° |
| 2026-05-07 15:50 | 38.17868 | 24.21453 | 19357 ft | 411 kts | 350° |
| 2026-05-07 15:50 | 38.20720 | 24.21075 | 19784 ft | 414 kts | 350° |
| 2026-05-07 15:51 | 38.23595 | 24.20697 | 20226 ft | 416 kts | 350° |
| 2026-05-07 15:51 | 38.26482 | 24.20320 | 20669 ft | 418 kts | 350° |
| 2026-05-07 15:51 | 38.29386 | 24.19941 | 21100 ft | 421 kts | 350° |
| 2026-05-07 15:51 | 38.32305 | 24.19560 | 21513 ft | 423 kts | 350° |
| 2026-05-07 15:52 | 38.35245 | 24.19176 | 21891 ft | 426 kts | 350° |
| 2026-05-07 15:52 | 38.38202 | 24.18790 | 22299 ft | 428 kts | 350° |
| 2026-05-07 15:52 | 38.41178 | 24.18400 | 22663 ft | 431 kts | 350° |
| 2026-05-07 15:52 | 38.44168 | 24.18008 | 23036 ft | 433 kts | 350° |
| 2026-05-07 15:53 | 38.47170 | 24.17615 | 23450 ft | 434 kts | 350° |
| 2026-05-07 15:53 | 38.50184 | 24.17220 | 23794 ft | 437 kts | 350° |
| 2026-05-07 15:53 | 38.53218 | 24.16822 | 24121 ft | 439 kts | 350° |
| 2026-05-07 15:53 | 38.56255 | 24.16422 | 24487 ft | 439 kts | 350° |
| 2026-05-07 15:54 | 38.59301 | 24.16022 | 24777 ft | 441 kts | 350° |
| 2026-05-07 15:54 | 38.62359 | 24.15619 | 25078 ft | 443 kts | 350° |
| 2026-05-07 15:54 | 38.65431 | 24.15214 | 25407 ft | 444 kts | 350° |
| 2026-05-07 15:54 | 38.68504 | 24.14809 | 25729 ft | 445 kts | 350° |
| 2026-05-07 15:55 | 38.71584 | 24.14403 | 26041 ft | 446 kts | 350° |
| 2026-05-07 15:55 | 38.74671 | 24.13995 | 26341 ft | 447 kts | 350° |
| 2026-05-07 15:55 | 38.77769 | 24.13585 | 26621 ft | 448 kts | 350° |
| 2026-05-07 15:55 | 38.80855 | 24.13175 | 26667 ft | 456 kts | 350° |
| 2026-05-07 15:56 | 38.84019 | 24.12754 | 26867 ft | 458 kts | 350° |
| 2026-05-07 15:56 | 38.87189 | 24.12334 | 27204 ft | 458 kts | 350° |
| 2026-05-07 15:56 | 38.90355 | 24.11916 | 27541 ft | 457 kts | 350° |
| 2026-05-07 15:56 | 38.93514 | 24.11498 | 27909 ft | 456 kts | 350° |
| 2026-05-07 15:57 | 38.96661 | 24.11081 | 28311 ft | 454 kts | 350° |
| 2026-05-07 15:57 | 38.99798 | 24.10664 | 28719 ft | 453 kts | 350° |
| 2026-05-07 15:57 | 39.02947 | 24.10244 | 28819 ft | 458 kts | 350° |
| 2026-05-07 15:57 | 39.06133 | 24.09817 | 29008 ft | 461 kts | 350° |
| 2026-05-07 15:58 | 39.09312 | 24.09393 | 29394 ft | 459 kts | 350° |
| 2026-05-07 15:58 | 39.12473 | 24.08972 | 29921 ft | 455 kts | 350° |
| 2026-05-07 15:58 | 39.15613 | 24.08554 | 30318 ft | 452 kts | 350° |
| 2026-05-07 15:58 | 39.18742 | 24.08136 | 30625 ft | 451 kts | 350° |
| 2026-05-07 15:59 | 39.21861 | 24.07718 | 30925 ft | 451 kts | 350° |
| 2026-05-07 15:59 | 39.27072 | 24.07017 | 31229 ft | 454 kts | 350° |
| 2026-05-07 15:59 | 39.30205 | 24.06596 | 31576 ft | 451 kts | 349° |
| 2026-05-07 16:00 | 39.33314 | 24.06180 | 32012 ft | 447 kts | 349° |
| 2026-05-07 16:00 | 39.39523 | 24.05344 | 32109 ft | 449 kts | 349° |
| 2026-05-07 16:01 | 39.45728 | 24.04507 | 32103 ft | 449 kts | 349° |
| 2026-05-07 16:01 | 39.51975 | 24.03661 | 32103 ft | 453 kts | 349° |
| 2026-05-07 16:02 | 39.58270 | 24.02808 | 32100 ft | 456 kts | 349° |
| 2026-05-07 16:02 | 39.64591 | 24.01952 | 32109 ft | 457 kts | 350° |
| 2026-05-07 16:03 | 39.70932 | 24.01092 | 32113 ft | 459 kts | 350° |
| 2026-05-07 16:03 | 39.77308 | 24.00225 | 32110 ft | 461 kts | 350° |
| 2026-05-07 16:04 | 39.83702 | 23.99354 | 32108 ft | 463 kts | 350° |
| 2026-05-07 16:04 | 39.90118 | 23.98478 | 32098 ft | 464 kts | 351° |
| 2026-05-07 16:05 | 39.96552 | 23.97598 | 32106 ft | 465 kts | 351° |
| 2026-05-07 16:05 | 40.02959 | 23.96720 | 32102 ft | 466 kts | 351° |
| 2026-05-07 16:06 | 40.09421 | 23.95833 | 32103 ft | 468 kts | 351° |
| 2026-05-07 16:06 | 40.15899 | 23.94942 | 32103 ft | 469 kts | 351° |
| 2026-05-07 16:07 | 40.22392 | 23.94047 | 32105 ft | 470 kts | 351° |
| 2026-05-07 16:07 | 40.28897 | 23.93148 | 32104 ft | 470 kts | 351° |
| 2026-05-07 16:08 | 40.35403 | 23.92248 | 32103 ft | 471 kts | 351° |
| 2026-05-07 16:08 | 40.41917 | 23.91345 | 32102 ft | 470 kts | 351° |
| 2026-05-07 16:09 | 40.48426 | 23.90441 | 32116 ft | 470 kts | 351° |
| 2026-05-07 16:09 | 40.54934 | 23.89535 | 32105 ft | 470 kts | 351° |
| 2026-05-07 16:10 | 40.61441 | 23.88628 | 32106 ft | 470 kts | 351° |
| 2026-05-07 16:10 | 40.67936 | 23.87721 | 32112 ft | 469 kts | 351° |
| 2026-05-07 16:11 | 40.74427 | 23.86812 | 32110 ft | 469 kts | 352° |
| 2026-05-07 16:11 | 40.80921 | 23.85901 | 32109 ft | 469 kts | 352° |
| 2026-05-07 16:12 | 40.87412 | 23.84988 | 32115 ft | 469 kts | 352° |
| 2026-05-07 16:12 | 40.93911 | 23.84073 | 32115 ft | 470 kts | 352° |
| 2026-05-07 16:13 | 41.00412 | 23.83155 | 32118 ft | 470 kts | 352° |
| 2026-05-07 16:13 | 41.06922 | 23.82235 | 32116 ft | 471 kts | 352° |
| 2026-05-07 16:14 | 41.13437 | 23.81312 | 32120 ft | 471 kts | 351° |
| 2026-05-07 16:14 | 41.19960 | 23.80386 | 32104 ft | 472 kts | 351° |
| 2026-05-07 16:15 | 41.26482 | 23.79458 | 32114 ft | 471 kts | 351° |
| 2026-05-07 16:15 | 41.32957 | 23.78535 | 32133 ft | 471 kts | 351° |
| 2026-05-07 16:16 | 41.39481 | 23.77603 | 32120 ft | 472 kts | 351° |
| 2026-05-07 16:16 | 41.45946 | 23.76227 | 32129 ft | 470 kts | 346° |
| 2026-05-07 16:17 | 41.52372 | 23.74534 | 32143 ft | 471 kts | 346° |
| 2026-05-07 16:17 | 41.58801 | 23.72833 | 32129 ft | 471 kts | 346° |
| 2026-05-07 16:18 | 41.65236 | 23.71174 | 32130 ft | 471 kts | 346° |
| 2026-05-07 16:18 | 41.71679 | 23.69535 | 32116 ft | 471 kts | 346° |
| 2026-05-07 16:19 | 41.78124 | 23.67899 | 32130 ft | 471 kts | 346° |
| 2026-05-07 16:19 | 41.84569 | 23.66258 | 32141 ft | 471 kts | 346° |
| 2026-05-07 16:20 | 41.91006 | 23.64614 | 32134 ft | 471 kts | 346° |
| 2026-05-07 16:20 | 41.97441 | 23.62967 | 32134 ft | 470 kts | 346° |
| 2026-05-07 16:21 | 42.03827 | 23.61329 | 32116 ft | 470 kts | 346° |
| 2026-05-07 16:21 | 42.10245 | 23.59679 | 32136 ft | 469 kts | 346° |
| 2026-05-07 16:22 | 42.16656 | 23.58028 | 32135 ft | 469 kts | 346° |
| 2026-05-07 16:22 | 42.23073 | 23.56371 | 32117 ft | 470 kts | 346° |
| 2026-05-07 16:23 | 42.29485 | 23.54713 | 32117 ft | 469 kts | 346° |
| 2026-05-07 16:23 | 42.35891 | 23.53053 | 32110 ft | 468 kts | 346° |
| 2026-05-07 16:24 | 42.42281 | 23.51394 | 32102 ft | 467 kts | 345° |
| 2026-05-07 16:24 | 42.48657 | 23.49734 | 32111 ft | 466 kts | 345° |
| 2026-05-07 16:25 | 42.55027 | 23.48073 | 32116 ft | 467 kts | 346° |
| 2026-05-07 16:25 | 42.61412 | 23.46403 | 32096 ft | 468 kts | 346° |
| 2026-05-07 16:26 | 42.67819 | 23.44724 | 32107 ft | 470 kts | 346° |
| 2026-05-07 16:26 | 42.74255 | 23.43035 | 32111 ft | 472 kts | 346° |
| 2026-05-07 16:27 | 42.80724 | 23.41333 | 32109 ft | 474 kts | 346° |
| 2026-05-07 16:27 | 42.87221 | 23.39621 | 32102 ft | 476 kts | 346° |
| 2026-05-07 16:28 | 42.93728 | 23.37903 | 32103 ft | 477 kts | 346° |
| 2026-05-07 16:28 | 43.00248 | 23.36178 | 32095 ft | 477 kts | 346° |
| 2026-05-07 16:29 | 43.06768 | 23.34449 | 32077 ft | 477 kts | 346° |
| 2026-05-07 16:29 | 43.13274 | 23.32720 | 32077 ft | 476 kts | 346° |
| 2026-05-07 16:30 | 43.19724 | 23.31002 | 32081 ft | 474 kts | 346° |
| 2026-05-07 16:30 | 43.26193 | 23.29275 | 32064 ft | 473 kts | 346° |
| 2026-05-07 16:31 | 43.32644 | 23.27548 | 32065 ft | 472 kts | 346° |
| 2026-05-07 16:31 | 43.39079 | 23.25823 | 32070 ft | 471 kts | 346° |
| 2026-05-07 16:32 | 43.45500 | 23.24097 | 32054 ft | 470 kts | 346° |
| 2026-05-07 16:32 | 43.51911 | 23.22371 | 32054 ft | 469 kts | 346° |
| 2026-05-07 16:33 | 43.58318 | 23.20641 | 32065 ft | 468 kts | 346° |
| 2026-05-07 16:33 | 43.64714 | 23.18911 | 32047 ft | 469 kts | 346° |
| 2026-05-07 16:34 | 43.71111 | 23.17177 | 32054 ft | 469 kts | 346° |
| 2026-05-07 16:34 | 43.77521 | 23.15435 | 32052 ft | 470 kts | 346° |
| 2026-05-07 16:35 | 43.83947 | 23.13685 | 32048 ft | 471 kts | 346° |
| 2026-05-07 16:35 | 43.90382 | 23.11929 | 32043 ft | 471 kts | 346° |
| 2026-05-07 16:36 | 43.96822 | 23.10169 | 32043 ft | 472 kts | 346° |
| 2026-05-07 16:36 | 44.03273 | 23.08400 | 32047 ft | 473 kts | 346° |
| 2026-05-07 16:37 | 44.09739 | 23.06624 | 32044 ft | 474 kts | 346° |
| 2026-05-07 16:37 | 44.16214 | 23.04842 | 32039 ft | 475 kts | 346° |
| 2026-05-07 16:38 | 44.22702 | 23.03052 | 32045 ft | 475 kts | 346° |
| 2026-05-07 16:38 | 44.29145 | 23.01271 | 32042 ft | 475 kts | 346° |
| 2026-05-07 16:39 | 44.35628 | 22.99474 | 32046 ft | 475 kts | 345° |
| 2026-05-07 16:39 | 44.42122 | 22.97670 | 32044 ft | 476 kts | 345° |
| 2026-05-07 16:40 | 44.48625 | 22.95860 | 32043 ft | 477 kts | 345° |
| 2026-05-07 16:40 | 44.55134 | 22.94043 | 32042 ft | 477 kts | 345° |
| 2026-05-07 16:41 | 44.61653 | 22.92220 | 32044 ft | 478 kts | 345° |
| 2026-05-07 16:41 | 44.68176 | 22.90392 | 32030 ft | 478 kts | 345° |
| 2026-05-07 16:42 | 44.74700 | 22.88559 | 32040 ft | 478 kts | 345° |
| 2026-05-07 16:42 | 44.81219 | 22.86723 | 32036 ft | 478 kts | 345° |
| 2026-05-07 16:43 | 44.87698 | 22.84895 | 32040 ft | 478 kts | 345° |
| 2026-05-07 16:43 | 44.94212 | 22.83052 | 32033 ft | 477 kts | 345° |
| 2026-05-07 16:44 | 45.00721 | 22.81206 | 32038 ft | 477 kts | 345° |
| 2026-05-07 16:44 | 45.07221 | 22.79359 | 32073 ft | 476 kts | 345° |
| 2026-05-07 16:45 | 45.13729 | 22.77505 | 32049 ft | 477 kts | 345° |
| 2026-05-07 16:45 | 45.20245 | 22.75644 | 32046 ft | 477 kts | 345° |
| 2026-05-07 16:46 | 45.26763 | 22.73779 | 32044 ft | 479 kts | 345° |
| 2026-05-07 16:46 | 45.33293 | 22.71905 | 32044 ft | 479 kts | 345° |
| 2026-05-07 16:47 | 45.39830 | 22.70025 | 32048 ft | 479 kts | 345° |
| 2026-05-07 16:47 | 45.46366 | 22.68141 | 32056 ft | 479 kts | 345° |
| 2026-05-07 16:48 | 45.52894 | 22.66256 | 32053 ft | 478 kts | 345° |
| 2026-05-07 16:48 | 45.59408 | 22.64370 | 32024 ft | 477 kts | 345° |
| 2026-05-07 16:49 | 45.65893 | 22.62487 | 32033 ft | 475 kts | 345° |
| 2026-05-07 16:49 | 45.71270 | 22.60923 | 32041 ft | 474 kts | 345° |
| 2026-05-07 16:50 | 45.77735 | 22.59038 | 32019 ft | 474 kts | 344° |
| 2026-05-07 16:50 | 45.84201 | 22.57148 | 32029 ft | 475 kts | 345° |
| 2026-05-07 16:51 | 45.90681 | 22.55249 | 32020 ft | 476 kts | 345° |
| 2026-05-07 16:51 | 45.97171 | 22.53343 | 32033 ft | 477 kts | 344° |
| 2026-05-07 16:52 | 46.03681 | 22.51427 | 32027 ft | 478 kts | 344° |
| 2026-05-07 16:52 | 46.10202 | 22.49503 | 32015 ft | 478 kts | 344° |
| 2026-05-07 16:53 | 46.16675 | 22.47589 | 32027 ft | 478 kts | 344° |
| 2026-05-07 16:53 | 46.23194 | 22.45657 | 32038 ft | 478 kts | 344° |
| 2026-05-07 16:54 | 46.29708 | 22.43721 | 32013 ft | 477 kts | 344° |
| 2026-05-07 16:54 | 46.36208 | 22.41785 | 32020 ft | 477 kts | 344° |
| 2026-05-07 16:55 | 46.42707 | 22.39844 | 32038 ft | 477 kts | 343° |
| 2026-05-07 16:55 | 46.49201 | 22.37900 | 32019 ft | 476 kts | 343° |
| 2026-05-07 16:56 | 46.55678 | 22.35956 | 32019 ft | 475 kts | 343° |
| 2026-05-07 16:56 | 46.65358 | 22.33043 | 32024 ft | 472 kts | 344° |
| 2026-05-07 16:57 | 46.71790 | 22.31100 | 32030 ft | 472 kts | 344° |
| 2026-05-07 16:57 | 46.78222 | 22.29152 | 32024 ft | 472 kts | 344° |
| 2026-05-07 16:58 | 46.84614 | 22.27213 | 32023 ft | 473 kts | 344° |
| 2026-05-07 16:58 | 46.91060 | 22.25252 | 32025 ft | 473 kts | 343° |
| 2026-05-07 16:59 | 46.97452 | 22.23015 | 32046 ft | 472 kts | 341° |
| 2026-05-07 16:59 | 47.03808 | 22.20565 | 32017 ft | 473 kts | 341° |
| 2026-05-07 17:00 | 47.10172 | 22.18135 | 32021 ft | 473 kts | 341° |
| 2026-05-07 17:00 | 47.16545 | 22.15739 | 32013 ft | 473 kts | 341° |
| 2026-05-07 17:01 | 47.22926 | 22.13349 | 32013 ft | 473 kts | 341° |
| 2026-05-07 17:01 | 47.29301 | 22.10955 | 32012 ft | 473 kts | 341° |
| 2026-05-07 17:02 | 47.35672 | 22.08554 | 32025 ft | 473 kts | 341° |
| 2026-05-07 17:02 | 47.42003 | 22.06162 | 32012 ft | 473 kts | 341° |
| 2026-05-07 17:03 | 47.48417 | 22.03732 | 32007 ft | 473 kts | 341° |
| 2026-05-07 17:03 | 47.54748 | 22.01328 | 32002 ft | 473 kts | 341° |
| 2026-05-07 17:04 | 47.61112 | 21.98905 | 32006 ft | 472 kts | 341° |
| 2026-05-07 17:04 | 47.67458 | 21.96390 | 32000 ft | 470 kts | 338° |
| 2026-05-07 17:05 | 47.73589 | 21.93100 | 32007 ft | 468 kts | 335° |
| 2026-05-07 17:05 | 47.79661 | 21.89581 | 32002 ft | 468 kts | 334° |
| 2026-05-07 17:06 | 47.85750 | 21.86101 | 32000 ft | 469 kts | 335° |
| 2026-05-07 17:06 | 47.91859 | 21.82667 | 31994 ft | 470 kts | 335° |
| 2026-05-07 17:07 | 47.97977 | 21.79244 | 31994 ft | 470 kts | 335° |
| 2026-05-07 17:07 | 48.04102 | 21.75811 | 32004 ft | 470 kts | 335° |
| 2026-05-07 17:08 | 48.10236 | 21.72361 | 31998 ft | 472 kts | 335° |
| 2026-05-07 17:08 | 48.16386 | 21.68891 | 31990 ft | 473 kts | 335° |
| 2026-05-07 17:09 | 48.22548 | 21.65405 | 31990 ft | 474 kts | 335° |
| 2026-05-07 17:09 | 48.28724 | 21.61903 | 31981 ft | 475 kts | 335° |
| 2026-05-07 17:10 | 48.34902 | 21.58391 | 31976 ft | 475 kts | 335° |
| 2026-05-07 17:10 | 48.41049 | 21.54887 | 31972 ft | 476 kts | 335° |
| 2026-05-07 17:11 | 48.47238 | 21.51350 | 31966 ft | 476 kts | 335° |
| 2026-05-07 17:11 | 48.53470 | 21.47779 | 31971 ft | 476 kts | 335° |
| 2026-05-07 17:12 | 48.59663 | 21.44221 | 31962 ft | 476 kts | 335° |
| 2026-05-07 17:12 | 48.65810 | 21.40680 | 31971 ft | 476 kts | 335° |
| 2026-05-07 17:13 | 48.71991 | 21.37110 | 31995 ft | 476 kts | 335° |
| 2026-05-07 17:13 | 48.78229 | 21.33497 | 31974 ft | 477 kts | 334° |
| 2026-05-07 17:14 | 48.84413 | 21.29903 | 31270 ft | 484 kts | 335° |
| 2026-05-07 17:14 | 48.87552 | 21.28077 | 30636 ft | 482 kts | 335° |
| 2026-05-07 17:14 | 48.90678 | 21.26257 | 29896 ft | 482 kts | 335° |
| 2026-05-07 17:15 | 48.93809 | 21.24432 | 29018 ft | 482 kts | 335° |
| 2026-05-07 17:15 | 48.96936 | 21.22606 | 28246 ft | 480 kts | 335° |
| 2026-05-07 17:15 | 49.00030 | 21.20798 | 27725 ft | 473 kts | 335° |
| 2026-05-07 17:15 | 49.03089 | 21.19009 | 27149 ft | 468 kts | 335° |
| 2026-05-07 17:16 | 49.06112 | 21.17238 | 26615 ft | 463 kts | 335° |
| 2026-05-07 17:16 | 49.09107 | 21.15479 | 26055 ft | 459 kts | 335° |
| 2026-05-07 17:16 | 49.12075 | 21.13732 | 25511 ft | 455 kts | 335° |
| 2026-05-07 17:16 | 49.15017 | 21.11999 | 24978 ft | 452 kts | 335° |
| 2026-05-07 17:17 | 49.17939 | 21.10276 | 24442 ft | 449 kts | 335° |
| 2026-05-07 17:17 | 49.20845 | 21.08559 | 23891 ft | 446 kts | 335° |
| 2026-05-07 17:17 | 49.23731 | 21.06853 | 23300 ft | 444 kts | 335° |
| 2026-05-07 17:17 | 49.26597 | 21.05156 | 22711 ft | 440 kts | 335° |
| 2026-05-07 17:18 | 49.29434 | 21.03476 | 22154 ft | 435 kts | 335° |
| 2026-05-07 17:18 | 49.32230 | 21.01766 | 21625 ft | 429 kts | 331° |
| 2026-05-07 17:18 | 49.34648 | 20.99239 | 21078 ft | 416 kts | 311° |
| 2026-05-07 17:18 | 49.36542 | 20.95956 | 20609 ft | 409 kts | 306° |
| 2026-05-07 17:19 | 49.38346 | 20.92597 | 20098 ft | 407 kts | 305° |
| 2026-05-07 17:19 | 49.40136 | 20.89245 | 19571 ft | 405 kts | 306° |
| 2026-05-07 17:19 | 49.41925 | 20.85912 | 19054 ft | 405 kts | 306° |
| 2026-05-07 17:19 | 49.43724 | 20.82587 | 18536 ft | 405 kts | 306° |
| 2026-05-07 17:20 | 49.45528 | 20.79269 | 17968 ft | 403 kts | 306° |
| 2026-05-07 17:20 | 49.47320 | 20.75984 | 17411 ft | 399 kts | 306° |
| 2026-05-07 17:20 | 49.49099 | 20.72724 | 16889 ft | 396 kts | 306° |
| 2026-05-07 17:20 | 49.50860 | 20.69494 | 16359 ft | 392 kts | 306° |
| 2026-05-07 17:21 | 49.52603 | 20.66292 | 15869 ft | 388 kts | 306° |
| 2026-05-07 17:21 | 49.54330 | 20.63114 | 15377 ft | 385 kts | 306° |
| 2026-05-07 17:21 | 49.56039 | 20.59966 | 14897 ft | 382 kts | 306° |
| 2026-05-07 17:21 | 49.57736 | 20.56837 | 14408 ft | 379 kts | 306° |
| 2026-05-07 17:22 | 49.59421 | 20.53720 | 13902 ft | 378 kts | 306° |
| 2026-05-07 17:22 | 49.61099 | 20.50609 | 13372 ft | 376 kts | 307° |
| 2026-05-07 17:22 | 49.62764 | 20.47520 | 12846 ft | 374 kts | 306° |
| 2026-05-07 17:22 | 49.64421 | 20.44440 | 12360 ft | 371 kts | 307° |
| 2026-05-07 17:23 | 49.66062 | 20.41388 | 11868 ft | 369 kts | 307° |
| 2026-05-07 17:23 | 49.67693 | 20.38349 | 11392 ft | 366 kts | 307° |
| 2026-05-07 17:23 | 49.69285 | 20.35380 | 11069 ft | 360 kts | 307° |
| 2026-05-07 17:23 | 49.70854 | 20.32455 | 10918 ft | 348 kts | 307° |
| 2026-05-07 17:24 | 49.72372 | 20.29618 | 10764 ft | 337 kts | 307° |
| 2026-05-07 17:24 | 49.73845 | 20.26864 | 10626 ft | 327 kts | 307° |
| 2026-05-07 17:24 | 49.75273 | 20.24192 | 10506 ft | 318 kts | 307° |
| 2026-05-07 17:24 | 49.76662 | 20.21587 | 10374 ft | 309 kts | 307° |
| 2026-05-07 17:25 | 49.78014 | 20.19057 | 10254 ft | 301 kts | 308° |
| 2026-05-07 17:25 | 49.79508 | 20.16817 | 10063 ft | 297 kts | 319° |
| 2026-05-07 17:25 | 49.81138 | 20.14928 | 9989 ft | 288 kts | 322° |
| 2026-05-07 17:25 | 49.82733 | 20.13147 | 9975 ft | 277 kts | 321° |
| 2026-05-07 17:26 | 49.84259 | 20.11426 | 9961 ft | 266 kts | 321° |
| 2026-05-07 17:26 | 49.85724 | 20.09745 | 9797 ft | 261 kts | 320° |
| 2026-05-07 17:26 | 49.87202 | 20.08021 | 9286 ft | 270 kts | 320° |
| 2026-05-07 17:26 | 49.88710 | 20.06250 | 8930 ft | 272 kts | 320° |
| 2026-05-07 17:27 | 49.90198 | 20.04498 | 8814 ft | 262 kts | 320° |
| 2026-05-07 17:27 | 49.91614 | 20.02834 | 8688 ft | 250 kts | 321° |
| 2026-05-07 17:27 | 49.93167 | 20.01699 | 8331 ft | 250 kts | 346° |
| 2026-05-07 17:27 | 49.94879 | 20.01246 | 7965 ft | 249 kts | 347° |
| 2026-05-07 17:28 | 49.96582 | 20.00770 | 7659 ft | 246 kts | 347° |
| 2026-05-07 17:28 | 49.98259 | 20.00288 | 7448 ft | 245 kts | 347° |
| 2026-05-07 17:28 | 49.99962 | 20.00165 | 7255 ft | 251 kts | 12° |
| 2026-05-07 17:28 | 50.01488 | 20.01475 | 7102 ft | 256 kts | 46° |
| 2026-05-07 17:29 | 50.02327 | 20.03884 | 6958 ft | 256 kts | 76° |
| 2026-05-07 17:29 | 50.02703 | 20.06600 | 6795 ft | 258 kts | 79° |
| 2026-05-07 17:29 | 50.03051 | 20.09333 | 6614 ft | 257 kts | 79° |
| 2026-05-07 17:29 | 50.03402 | 20.12049 | 6439 ft | 255 kts | 79° |
| 2026-05-07 17:30 | 50.03750 | 20.14732 | 6258 ft | 252 kts | 79° |
| 2026-05-07 17:30 | 50.04089 | 20.17406 | 6104 ft | 252 kts | 79° |
| 2026-05-07 17:30 | 50.04421 | 20.20074 | 6021 ft | 251 kts | 79° |
| 2026-05-07 17:30 | 50.04750 | 20.22735 | 5948 ft | 251 kts | 79° |
| 2026-05-07 17:31 | 50.05078 | 20.25403 | 5873 ft | 251 kts | 79° |
| 2026-05-07 17:31 | 50.05401 | 20.28040 | 5798 ft | 243 kts | 79° |
| 2026-05-07 17:31 | 50.05709 | 20.30558 | 5733 ft | 231 kts | 79° |
| 2026-05-07 17:31 | 50.06003 | 20.32968 | 5634 ft | 224 kts | 79° |
| 2026-05-07 17:32 | 50.06346 | 20.35308 | 5539 ft | 222 kts | 66° |
| 2026-05-07 17:32 | 50.07292 | 20.37156 | 5456 ft | 221 kts | 30° |
| 2026-05-07 17:32 | 50.08713 | 20.37848 | 5401 ft | 219 kts | 356° |
| 2026-05-07 17:32 | 50.09730 | 20.37691 | 5380 ft | 218 kts | 348° |
| 2026-05-07 17:33 | 50.11704 | 20.37142 | 5269 ft | 217 kts | 346° |
| 2026-05-07 17:33 | 50.13112 | 20.36418 | 5143 ft | 212 kts | 319° |
| 2026-05-07 17:33 | 50.13846 | 20.34547 | 5059 ft | 206 kts | 275° |
| 2026-05-07 17:33 | 50.13755 | 20.32323 | 5045 ft | 207 kts | 265° |
| 2026-05-07 17:34 | 50.13687 | 20.30091 | 5027 ft | 205 kts | 268° |
| 2026-05-07 17:34 | 50.13674 | 20.27871 | 5015 ft | 205 kts | 270° |
| 2026-05-07 17:34 | 50.13687 | 20.25652 | 5019 ft | 204 kts | 270° |
| 2026-05-07 17:34 | 50.13714 | 20.23469 | 5036 ft | 202 kts | 271° |
| 2026-05-07 17:35 | 50.13694 | 20.21253 | 4988 ft | 207 kts | 262° |
| 2026-05-07 17:35 | 50.13384 | 20.19049 | 4807 ft | 208 kts | 257° |
| 2026-05-07 17:35 | 50.13069 | 20.16888 | 4600 ft | 200 kts | 258° |
| 2026-05-07 17:35 | 50.12780 | 20.14823 | 4421 ft | 191 kts | 258° |
| 2026-05-07 17:36 | 50.12504 | 20.12819 | 4262 ft | 188 kts | 258° |
| 2026-05-07 17:36 | 50.12235 | 20.10858 | 4111 ft | 182 kts | 258° |
| 2026-05-07 17:36 | 50.11972 | 20.08945 | 3960 ft | 180 kts | 258° |
| 2026-05-07 17:36 | 50.11710 | 20.07025 | 3823 ft | 183 kts | 258° |
| 2026-05-07 17:37 | 50.11445 | 20.05087 | 3674 ft | 182 kts | 259° |
| 2026-05-07 17:37 | 50.11184 | 20.03187 | 3520 ft | 178 kts | 259° |
| 2026-05-07 17:37 | 50.10925 | 20.01298 | 3368 ft | 179 kts | 259° |
| 2026-05-07 17:37 | 50.10663 | 19.99389 | 3216 ft | 181 kts | 259° |
| 2026-05-07 17:38 | 50.10401 | 19.97474 | 3035 ft | 180 kts | 259° |
| 2026-05-07 17:38 | 50.10137 | 19.95561 | 2795 ft | 180 kts | 258° |
| 2026-05-07 17:38 | 50.09881 | 19.93701 | 2561 ft | 170 kts | 258° |
| 2026-05-07 17:38 | 50.09642 | 19.91967 | 2365 ft | 159 kts | 259° |
| 2026-05-07 17:39 | 50.09410 | 19.90280 | 2160 ft | 160 kts | 258° |
| 2026-05-07 17:39 | 50.09178 | 19.88598 | 1943 ft | 158 kts | 258° |
| 2026-05-07 17:39 | 50.08947 | 19.86929 | 1697 ft | 159 kts | 257° |
| 2026-05-07 17:39 | 50.08713 | 19.85262 | 1480 ft | 157 kts | 256° |
| 2026-05-07 17:40 | 50.08559 | 19.84165 | 1356 ft | 156 kts | 256° |
| 2026-05-07 17:40 | 50.08333 | 19.82495 | 1156 ft | 158 kts | 256° |
| 2026-05-07 17:40 | 50.08098 | 19.80835 | 949 ft | 156 kts | 256° |
| 2026-05-07 17:40 | 50.07859 | 19.79146 | 1066 ft | 168 kts | 255° |
| 2026-05-07 17:41 | 50.07589 | 19.77237 | 1814 ft | 190 kts | 257° |
| 2026-05-07 17:41 | 50.07313 | 19.75257 | 2950 ft | 187 kts | 258° |
| 2026-05-07 17:41 | 50.07031 | 19.73226 | 3600 ft | 196 kts | 258° |
| 2026-05-07 17:41 | 50.06735 | 19.71100 | 4003 ft | 210 kts | 258° |
| 2026-05-07 17:42 | 50.06420 | 19.68835 | 4014 ft | 217 kts | 258° |
| 2026-05-07 17:42 | 50.06101 | 19.66552 | 3998 ft | 215 kts | 258° |
| 2026-05-07 17:42 | 50.05848 | 19.64252 | 4052 ft | 222 kts | 271° |
| 2026-05-07 17:42 | 50.06337 | 19.61881 | 4462 ft | 243 kts | 304° |
| 2026-05-07 17:43 | 50.07630 | 19.60130 | 4966 ft | 254 kts | 331° |
| 2026-05-07 17:43 | 50.09322 | 19.59283 | 5024 ft | 257 kts | 344° |
| 2026-05-07 17:43 | 50.11082 | 19.58705 | 5020 ft | 259 kts | 346° |
| 2026-05-07 17:43 | 50.12871 | 19.58357 | 5007 ft | 262 kts | 2° |
| 2026-05-07 17:44 | 50.14619 | 19.59238 | 5034 ft | 273 kts | 31° |
| 2026-05-07 17:44 | 50.15962 | 19.61368 | 5026 ft | 282 kts | 59° |
| 2026-05-07 17:44 | 50.16667 | 19.64229 | 5037 ft | 284 kts | 74° |
| 2026-05-07 17:44 | 50.17168 | 19.67213 | 5017 ft | 284 kts | 76° |
| 2026-05-07 17:45 | 50.17643 | 19.70187 | 5028 ft | 282 kts | 76° |
| 2026-05-07 17:45 | 50.18113 | 19.73155 | 5018 ft | 281 kts | 76° |
| 2026-05-07 17:45 | 50.18579 | 19.76113 | 5019 ft | 280 kts | 76° |
| 2026-05-07 17:45 | 50.19041 | 19.79067 | 5027 ft | 280 kts | 76° |
| 2026-05-07 17:46 | 50.19503 | 19.82022 | 5024 ft | 280 kts | 76° |
| 2026-05-07 17:46 | 50.19963 | 19.84978 | 5028 ft | 280 kts | 76° |
| 2026-05-07 17:46 | 50.20423 | 19.87940 | 5031 ft | 281 kts | 76° |
| 2026-05-07 17:46 | 50.20882 | 19.90906 | 5024 ft | 282 kts | 76° |
| 2026-05-07 17:47 | 50.21342 | 19.93881 | 5026 ft | 282 kts | 76° |
| 2026-05-07 17:47 | 50.21801 | 19.96866 | 5026 ft | 283 kts | 76° |
| 2026-05-07 17:47 | 50.22258 | 19.99844 | 4972 ft | 283 kts | 76° |
| 2026-05-07 17:47 | 50.22719 | 20.02847 | 4831 ft | 285 kts | 76° |
| 2026-05-07 17:48 | 50.23179 | 20.05857 | 4700 ft | 286 kts | 76° |
| 2026-05-07 17:48 | 50.23638 | 20.08870 | 4557 ft | 285 kts | 76° |
| 2026-05-07 17:48 | 50.24091 | 20.11853 | 4403 ft | 279 kts | 76° |
| 2026-05-07 17:48 | 50.24532 | 20.14764 | 4255 ft | 272 kts | 76° |
| 2026-05-07 17:49 | 50.24962 | 20.17605 | 4108 ft | 265 kts | 77° |
| 2026-05-07 17:49 | 50.24999 | 20.20406 | 3991 ft | 256 kts | 110° |
| 2026-05-07 17:49 | 50.24007 | 20.22598 | 4001 ft | 249 kts | 148° |
| 2026-05-07 17:49 | 50.22400 | 20.23417 | 4020 ft | 245 kts | 182° |
| 2026-05-07 17:50 | 50.20774 | 20.22846 | 4010 ft | 239 kts | 211° |
| 2026-05-07 17:50 | 50.19469 | 20.21275 | 4015 ft | 237 kts | 226° |
| 2026-05-07 17:50 | 50.18322 | 20.19420 | 4009 ft | 238 kts | 228° |
| 2026-05-07 17:50 | 50.17184 | 20.17530 | 4008 ft | 239 kts | 228° |
| 2026-05-07 17:51 | 50.16035 | 20.15644 | 4003 ft | 240 kts | 228° |
| 2026-05-07 17:51 | 50.14876 | 20.13765 | 3992 ft | 240 kts | 227° |
| 2026-05-07 17:51 | 50.13726 | 20.11913 | 3987 ft | 234 kts | 227° |
| 2026-05-07 17:51 | 50.12613 | 20.10122 | 4011 ft | 227 kts | 229° |
| 2026-05-07 17:52 | 50.11839 | 20.08043 | 3985 ft | 222 kts | 257° |
| 2026-05-07 17:52 | 50.11535 | 20.05733 | 3921 ft | 214 kts | 258° |
| 2026-05-07 17:52 | 50.11229 | 20.03498 | 3669 ft | 207 kts | 259° |
| 2026-05-07 17:52 | 50.10934 | 20.01356 | 3442 ft | 198 kts | 259° |
| 2026-05-07 17:53 | 50.10651 | 19.99295 | 3212 ft | 191 kts | 259° |
| 2026-05-07 17:53 | 50.10378 | 19.97310 | 2970 ft | 183 kts | 259° |
| 2026-05-07 17:53 | 50.10119 | 19.95434 | 2753 ft | 170 kts | 259° |
| 2026-05-07 17:53 | 50.09879 | 19.93696 | 2562 ft | 158 kts | 259° |
| 2026-05-07 17:54 | 50.09651 | 19.92043 | 2344 ft | 154 kts | 259° |
| 2026-05-07 17:54 | 50.09429 | 19.90423 | 2130 ft | 154 kts | 259° |
| 2026-05-07 17:54 | 50.09202 | 19.88773 | 1936 ft | 158 kts | 258° |
| 2026-05-07 17:54 | 50.08969 | 19.87092 | 1718 ft | 160 kts | 257° |
| 2026-05-07 17:55 | 50.08735 | 19.85401 | 1509 ft | 159 kts | 256° |
| 2026-05-07 17:55 | 50.08498 | 19.83697 | 1293 ft | 161 kts | 255° |
| 2026-05-07 17:55 | 50.08264 | 19.82019 | 1093 ft | 156 kts | 256° |
| 2026-05-07 17:55 | 50.08035 | 19.80400 | 907 ft | 155 kts | 256° |
| 2026-05-07 17:56 | 50.07813 | 19.78785 | 802 ft | 140 kts | 258° |
| 2026-05-07 17:56 | 50.07654 | 19.77626 | 798 ft | 79 kts | 258° |
| 2026-05-07 17:56 | 50.07579 | 19.77085 | 802 ft | 37 kts | 258° |
| 2026-05-07 17:56 | 50.07541 | 19.76874 | 801 ft | 11 kts | 230° |
| 2026-05-07 17:57 | 50.07467 | 19.76848 | 800 ft | 12 kts | 167° |
| 2026-05-07 17:57 | 50.07414 | 19.76869 | 799 ft | 12 kts | 165° |
| 2026-05-07 17:57 | 50.07314 | 19.76922 | 799 ft | 11 kts | 126° |
| 2026-05-07 17:57 | 50.07318 | 19.77040 | 799 ft | 11 kts | 77° |
| 2026-05-07 17:58 | 50.07334 | 19.77156 | 799 ft | 11 kts | 78° |
| 2026-05-07 17:58 | 50.07352 | 19.77289 | 799 ft | 14 kts | 78° |
| 2026-05-07 17:58 | 50.07376 | 19.77452 | 799 ft | 17 kts | 77° |
| 2026-05-07 17:58 | 50.07403 | 19.77648 | 799 ft | 21 kts | 78° |
| 2026-05-07 17:59 | 50.07437 | 19.77893 | 799 ft | 23 kts | 77° |
| 2026-05-07 17:59 | 50.07471 | 19.78132 | 799 ft | 22 kts | 78° |
| 2026-05-07 17:59 | 50.07502 | 19.78366 | 799 ft | 22 kts | 78° |
| 2026-05-07 17:59 | 50.07534 | 19.78593 | 799 ft | 21 kts | 78° |
| 2026-05-07 18:00 | 50.07565 | 19.78813 | 799 ft | 20 kts | 78° |
| 2026-05-07 18:00 | 50.07595 | 19.79026 | 799 ft | 20 kts | 77° |
| 2026-05-07 18:00 | 50.07623 | 19.79233 | 799 ft | 19 kts | 78° |
| 2026-05-07 18:00 | 50.07651 | 19.79433 | 799 ft | 19 kts | 76° |
| 2026-05-07 18:01 | 50.07679 | 19.79627 | 799 ft | 18 kts | 79° |
| 2026-05-07 18:01 | 50.07704 | 19.79813 | 799 ft | 15 kts | 86° |
| 2026-05-07 18:01 | 50.07629 | 19.79893 | 799 ft | 14 kts | 168° |
| 2026-05-07 18:01 | 50.07538 | 19.79925 | 799 ft | 9 kts | 166° |
| 2026-05-07 18:02 | 50.07526 | 19.80104 | 799 ft | 9 kts | 94° |
| 2026-05-07 18:02 | 50.07505 | 19.80131 | 799 ft | 1 kts | 158° |
| 2026-05-07 18:02 | 50.07494 | 19.80136 | 799 ft | 3 kts | 167° |
| 2026-05-07 18:03 | 50.07481 | 19.80140 | 799 ft | 0 kts | 168° |
| 2026-05-07 18:03 | 50.07480 | 19.80140 | 799 ft | 0 kts | 168° |